Time;durP1;ratioP1;P1;durP2;ratioP2;P2;SDS_P1;SDS_P2;PMS_P1;PMS_P2;Temp;Humidity;BMP_temperature;BMP_pressure;BME280_temperature;BME280_humidity;BME280_pressure;Samples;Min_cycle;Max_cycle;Signal;HPM_P1;HPM_P2
2022/12/14 00:01:29;;;;;;;81.00;39.40;;;;;;;-7.88;86.94;100207.05;101893;1317;80810;-59
2022/12/14 00:04:05;;;;;;;97.60;42.70;;;;;;;-7.82;87.22;100206.42;101920;1313;98078;-59
2022/12/14 00:06:41;;;;;;;81.20;38.00;;;;;;;-7.83;86.97;100207.30;101910;1313;88317;-57
2022/12/14 00:09:15;;;;;;;79.50;39.00;;;;;;;-7.84;87.15;100208.60;101918;1317;95376;-57
2022/12/14 00:11:49;;;;;;;83.30;38.20;;;;;;;-7.85;87.24;100211.62;101894;1313;79919;-58
2022/12/14 00:14:26;;;;;;;75.90;35.10;;;;;;;-7.83;87.10;100209.58;101893;1313;82946;-58
2022/12/14 00:17:01;;;;;;;71.90;34.20;;;;;;;-7.87;86.89;100203.17;101920;1313;99348;-57
2022/12/14 00:19:37;;;;;;;67.00;33.40;;;;;;;-7.91;86.96;100206.88;101911;1313;89002;-57
2022/12/14 00:22:13;;;;;;;72.80;35.40;;;;;;;-7.96;87.04;100207.98;101886;1317;93876;-57
2022/12/14 00:24:49;;;;;;;66.30;31.60;;;;;;;-7.98;86.96;100209.70;101925;1315;80474;-58
2022/12/14 00:27:25;;;;;;;71.00;33.70;;;;;;;-8.02;87.01;100203.42;101949;1313;83374;-57
2022/12/14 00:30:02;;;;;;;67.30;32.60;;;;;;;-8.04;87.01;100199.35;101920;1317;97177;-59
2022/12/14 00:32:39;;;;;;;69.60;33.20;;;;;;;-8.12;86.85;100194.88;101904;1317;89039;-58
2022/12/14 00:35:19;;;;;;;69.70;33.20;;;;;;;-8.15;86.90;100202.72;101918;1315;94900;-57
2022/12/14 00:37:55;;;;;;;75.90;35.80;;;;;;;-8.20;86.90;100197.88;101872;1314;82100;-57
2022/12/14 00:40:31;;;;;;;79.60;35.80;;;;;;;-8.23;86.67;100202.77;101875;1313;83169;-58
2022/12/14 00:43:05;;;;;;;72.10;35.10;;;;;;;-8.31;86.78;100203.19;101893;1316;99736;-57
2022/12/14 00:45:39;;;;;;;73.10;35.70;;;;;;;-8.37;86.59;100207.33;101850;1317;88371;-57
2022/12/14 00:48:13;;;;;;;84.40;38.30;;;;;;;-8.44;86.64;100205.08;101883;1317;95740;-58
2022/12/14 00:50:51;;;;;;;85.00;38.00;;;;;;;-8.51;86.50;100204.52;101903;1314;80757;-58
2022/12/14 00:53:26;;;;;;;77.50;36.60;;;;;;;-8.54;86.45;100205.53;101890;1317;81408;-57
2022/12/14 00:56:08;;;;;;;74.60;38.60;;;;;;;-8.60;86.42;100210.04;101896;1317;99088;-57
2022/12/14 00:58:43;;;;;;;72.70;35.80;;;;;;;-8.66;86.48;100209.81;101945;1313;88961;-58
2022/12/14 01:01:20;;;;;;;71.50;35.00;;;;;;;-8.70;86.49;100208.25;101920;1313;93108;-58
2022/12/14 01:04:15;;;;;;;68.30;33.80;;;;;;;-8.74;86.55;100203.91;101968;1313;82681;-58
2022/12/14 01:06:53;;;;;;;68.40;34.00;;;;;;;-8.80;86.27;100203.49;101969;1317;82943;-58
2022/12/14 01:09:28;;;;;;;72.00;34.40;;;;;;;-8.83;86.47;100201.20;101922;1315;96380;-58
2022/12/14 01:12:08;;;;;;;65.20;33.40;;;;;;;-8.87;86.38;100204.89;101882;1314;88019;-58
2022/12/14 01:14:45;;;;;;;73.00;33.20;;;;;;;-8.96;86.24;100204.81;101857;1314;95825;-58
2022/12/14 01:17:22;;;;;;;69.40;32.70;;;;;;;-9.05;86.29;100204.50;101887;1315;81940;-58
2022/12/14 01:19:58;;;;;;;68.80;32.40;;;;;;;-9.11;86.30;100208.29;101923;1315;81630;-57
2022/12/14 01:22:33;;;;;;;64.70;30.40;;;;;;;-9.15;86.36;100202.40;101888;1313;97679;-58
2022/12/14 01:25:09;;;;;;;67.30;31.70;;;;;;;-9.15;86.53;100203.23;101692;1312;264090;-59
2022/12/14 01:27:44;;;;;;;67.00;31.90;;;;;;;-9.16;86.47;100201.55;101867;1317;94673;-57
2022/12/14 01:30:19;;;;;;;66.00;31.20;;;;;;;-9.15;86.32;100196.64;101923;1313;82424;-59
2022/12/14 01:32:54;;;;;;;60.80;30.50;;;;;;;-9.17;86.29;100197.77;101900;1313;83715;-57
2022/12/14 01:35:30;;;;;;;67.60;31.30;;;;;;;-9.27;86.25;100194.89;101904;1317;98974;-58
2022/12/14 01:38:06;;;;;;;68.70;31.80;;;;;;;-9.30;86.32;100193.86;101913;1313;89243;-57
2022/12/14 01:40:42;;;;;;;67.10;31.40;;;;;;;-9.38;86.30;100192.80;101904;1313;94849;-57
2022/12/14 01:43:20;;;;;;;58.30;28.10;;;;;;;-9.41;86.24;100192.97;101984;1315;82542;-58
2022/12/14 01:45:57;;;;;;;67.70;31.80;;;;;;;-9.46;86.18;100195.98;101967;1314;84164;-57
2022/12/14 01:48:32;;;;;;;68.70;31.70;;;;;;;-9.51;86.18;100192.88;101937;1313;99527;-58
2022/12/14 01:51:11;;;;;;;73.60;33.40;;;;;;;-9.51;86.10;100193.41;101956;1317;88204;-58
2022/12/14 01:53:48;;;;;;;71.20;33.40;;;;;;;-9.56;86.10;100194.17;101937;1317;94609;-58
2022/12/14 01:56:22;;;;;;;68.60;31.50;;;;;;;-9.58;86.25;100195.33;101878;1313;82220;-58
2022/12/14 01:59:01;;;;;;;63.50;32.20;;;;;;;-9.63;86.30;100196.72;101918;1313;81835;-59
2022/12/14 02:01:39;;;;;;;63.50;30.40;;;;;;;-9.69;86.25;100198.40;101881;1314;100193;-59
2022/12/14 02:04:17;;;;;;;63.30;29.90;;;;;;;-9.75;86.07;100194.32;101924;1313;87861;-58
2022/12/14 02:06:54;;;;;;;68.70;32.00;;;;;;;-9.79;85.92;100192.61;101887;1313;93865;-58
2022/12/14 02:09:32;;;;;;;73.70;32.80;;;;;;;-9.85;85.92;100184.51;101881;1315;81300;-58
2022/12/14 02:12:17;;;;;;;61.90;30.30;;;;;;;-9.93;85.81;100183.99;101858;1313;80939;-58
2022/12/14 02:14:55;;;;;;;66.30;29.70;;;;;;;-10.01;85.85;100184.52;101876;1317;96969;-58
2022/12/14 02:17:31;;;;;;;64.20;29.30;;;;;;;-10.10;85.81;100186.30;101911;1317;89224;-58
2022/12/14 02:20:08;;;;;;;68.60;30.60;;;;;;;-10.15;85.65;100187.22;101946;1313;94915;-57
2022/12/14 02:23:29;;;;;;;64.30;29.60;;;;;;;-10.21;85.63;100184.54;101914;1313;82514;-58
2022/12/14 02:26:47;;;;;;;64.70;28.80;;;;;;;-10.31;85.68;100187.05;101920;1311;80805;-57
2022/12/14 02:30:01;;;;;;;60.20;27.10;;;;;;;-10.38;85.60;100190.29;101926;1314;99643;-58
2022/12/14 02:33:19;;;;;;;62.00;28.50;;;;;;;-10.47;85.59;100189.80;101913;1317;88237;-58
2022/12/14 02:35:59;;;;;;;62.90;28.10;;;;;;;-10.52;85.48;100188.60;101906;1313;95234;-58
2022/12/14 02:38:49;;;;;;;52.50;26.50;;;;;;;-10.56;85.56;100190.52;101884;1313;82562;-57
2022/12/14 02:41:37;;;;;;;53.30;25.30;;;;;;;-10.54;85.63;100195.86;101905;1315;82696;-57
2022/12/14 02:44:23;;;;;;;61.90;27.00;;;;;;;-10.57;85.59;100192.66;101871;1316;99228;-58
2022/12/14 02:47:04;;;;;;;53.20;24.40;;;;;;;-10.60;85.56;100192.61;101909;1313;87895;-59
2022/12/14 02:50:00;;;;;;;55.00;25.40;;;;;;;-10.62;85.48;100194.42;101986;1315;94786;-58
2022/12/14 02:52:47;;;;;;;60.80;26.80;;;;;;;-10.63;85.54;100196.20;101931;1314;80372;-58
2022/12/14 02:55:31;;;;;;;53.30;24.80;;;;;;;-10.66;85.59;100196.49;101884;1316;83041;-59
2022/12/14 02:58:16;;;;;;;55.10;26.00;;;;;;;-10.66;85.51;100199.11;101913;1313;97192;-57
2022/12/14 03:00:55;;;;;;;54.60;25.40;;;;;;;-10.71;85.47;100199.83;101901;1317;89188;-56
2022/12/14 03:03:34;;;;;;;54.50;24.20;;;;;;;-10.74;85.44;100199.44;101898;1312;93442;-57
2022/12/14 03:06:24;;;;;;;51.70;24.50;;;;;;;-10.76;85.47;100198.30;101928;1313;80001;-58
2022/12/14 03:09:04;;;;;;;53.20;23.60;;;;;;;-10.80;85.34;100202.98;101872;1315;82862;-58
2022/12/14 03:11:46;;;;;;;48.30;24.10;;;;;;;-10.89;85.24;100204.36;101942;1313;100116;-57
2022/12/14 03:14:29;;;;;;;53.90;23.70;;;;;;;-10.89;85.29;100205.10;101925;1314;89082;-58
2022/12/14 03:17:13;;;;;;;54.20;23.90;;;;;;;-10.90;85.42;100200.59;101895;1313;95772;-58
2022/12/14 03:19:53;;;;;;;50.90;24.80;;;;;;;-10.86;85.45;100195.92;101905;1316;81454;-58
2022/12/14 03:22:37;;;;;;;50.10;23.70;;;;;;;-10.84;85.31;100194.44;101895;1314;82842;-58
2022/12/14 03:25:16;;;;;;;;;;;;;;;-10.84;85.48;100193.59;101901;1314;99120;-60
2022/12/14 03:27:59;;;;;;;54.90;22.70;;;;;;;-10.89;85.43;100194.31;101907;1313;87985;-58
2022/12/14 03:30:40;;;;;;;46.00;23.20;;;;;;;-10.94;85.27;100197.46;101830;1314;95398;-57
2022/12/14 03:33:21;;;;;;;45.00;21.70;;;;;;;-11.00;85.43;100200.30;101889;1315;82384;-57
2022/12/14 03:36:04;;;;;;;44.90;21.50;;;;;;;-11.05;85.33;100202.41;101869;1315;81185;-59
2022/12/14 03:38:43;;;;;;;43.30;19.80;;;;;;;-11.10;85.16;100200.02;101879;1313;99148;-58
2022/12/14 03:41:27;;;;;;;49.60;22.40;;;;;;;-11.09;85.22;100203.60;101889;1317;89042;-58
2022/12/14 03:44:24;;;;;;;48.70;23.20;;;;;;;-11.11;85.25;100202.67;101908;1315;95646;-57
2022/12/14 03:47:12;;;;;;;46.20;21.30;;;;;;;-11.13;85.28;100200.83;101871;1313;80699;-57
2022/12/14 03:50:00;;;;;;;48.40;22.00;;;;;;;-11.12;85.14;100204.80;101933;1313;81961;-57
2022/12/14 03:52:40;;;;;;;41.90;19.60;;;;;;;-11.10;85.22;100206.63;101904;1313;99536;-58
2022/12/14 03:55:27;;;;;;;45.40;19.70;;;;;;;-11.10;85.30;100206.08;101932;1313;86904;-58
2022/12/14 03:58:34;;;;;;;44.40;22.00;;;;;;;-11.12;85.35;100204.98;101914;1313;94391;-57
2022/12/14 04:01:17;;;;;;;44.50;21.20;;;;;;;-11.12;85.35;100206.86;101923;1317;81431;-58
2022/12/14 04:04:00;;;;;;;45.20;22.40;;;;;;;-11.13;85.24;100210.54;101943;1311;80601;-57
2022/12/14 04:06:44;;;;;;;47.10;21.50;;;;;;;-11.15;85.28;100210.63;101887;1315;98984;-57
2022/12/14 04:09:31;;;;;;;45.30;20.30;;;;;;;-11.18;85.18;100208.30;101896;1317;88111;-56
2022/12/14 04:21:12;;;;;;;54.30;23.50;;;;;;;-10.95;85.43;100195.23;101866;1317;100327;-57
2022/12/14 04:26:49;;;;;;;49.30;23.30;;;;;;;-11.05;85.33;100192.67;101862;1315;93793;-57
2022/12/14 04:32:29;;;;;;;50.30;22.90;;;;;;;-11.05;85.29;100190.43;101879;1313;82211;-58
2022/12/14 04:35:11;;;;;;;50.70;21.50;;;;;;;-10.99;85.46;100192.63;101915;1317;100306;-57
2022/12/14 04:37:49;;;;;;;46.10;22.80;;;;;;;-11.04;85.46;100199.08;101895;1313;87293;-57
2022/12/14 04:40:32;;;;;;;44.60;21.80;;;;;;;-11.09;85.37;100196.33;101880;1313;93774;-58
2022/12/14 04:43:12;;;;;;;48.70;22.30;;;;;;;-11.07;85.45;100199.88;101917;1313;80783;-58
2022/12/14 04:45:58;;;;;;;49.50;22.70;;;;;;;-11.06;85.44;100198.63;102004;1313;82432;-60
2022/12/14 04:48:40;;;;;;;43.20;21.20;;;;;;;-11.04;85.45;100197.53;101907;1313;99653;-58
2022/12/14 04:51:25;;;;;;;45.00;22.30;;;;;;;-11.02;85.33;100199.70;101951;1314;88895;-59
2022/12/14 04:54:05;;;;;;;48.50;22.20;;;;;;;-11.01;85.56;100204.16;101889;1312;93327;-58
2022/12/14 04:56:45;;;;;;;45.30;22.90;;;;;;;-10.93;85.56;100200.54;101889;1314;80842;-58
2022/12/14 04:59:21;;;;;;;49.90;24.10;;;;;;;-10.81;85.77;100201.30;101905;1313;81915;-58
2022/12/14 05:02:10;;;;;;;44.60;21.50;;;;;;;-10.70;85.79;100199.64;101895;1314;97871;-59
2022/12/14 05:04:55;;;;;;;44.10;22.60;;;;;;;-10.58;85.84;100191.85;101895;1317;87946;-58
2022/12/14 05:07:46;;;;;;;55.70;23.80;;;;;;;-10.49;85.98;100185.88;101916;1313;93075;-58
2022/12/14 05:10:25;;;;;;;49.50;22.40;;;;;;;-10.35;85.95;100190.34;101908;1314;82803;-57
2022/12/14 05:13:10;;;;;;;48.90;22.40;;;;;;;-10.32;86.00;100180.79;101856;1317;81739;-57
2022/12/14 05:15:49;;;;;;;46.70;23.20;;;;;;;-10.24;86.01;100175.77;101859;1313;99627;-58
2022/12/14 05:18:26;;;;;;;49.00;23.70;;;;;;;-10.20;85.88;100175.96;101894;1313;87354;-58
2022/12/14 05:21:00;;;;;;;47.60;21.60;;;;;;;-10.17;85.81;100174.79;101939;1314;94616;-58
2022/12/14 05:23:37;;;;;;;49.90;24.00;;;;;;;-10.12;85.87;100174.91;101918;1315;80819;-58
2022/12/14 05:26:13;;;;;;;50.00;24.10;;;;;;;-10.07;86.00;100173.79;101911;1317;83427;-58
2022/12/14 05:28:51;;;;;;;46.70;22.00;;;;;;;-10.03;86.12;100172.59;101937;1311;100547;-58
2022/12/14 05:31:27;;;;;;;45.30;22.30;;;;;;;-9.99;86.06;100169.08;101958;1316;89005;-59
2022/12/14 05:34:01;;;;;;;47.00;21.60;;;;;;;-10.02;85.87;100172.70;101968;1316;94318;-59
2022/12/14 05:36:38;;;;;;;46.10;21.40;;;;;;;-10.06;85.86;100176.02;101967;1317;81211;-59
2022/12/14 05:39:13;;;;;;;45.50;21.20;;;;;;;-10.13;85.79;100181.02;101920;1314;82847;-61
2022/12/14 05:41:52;;;;;;;43.70;20.40;;;;;;;-10.21;85.72;100182.58;101925;1313;99273;-60
2022/12/14 05:44:27;;;;;;;41.70;20.10;;;;;;;-10.28;85.60;100182.72;101927;1317;89072;-59
2022/12/14 05:47:03;;;;;;;41.80;20.00;;;;;;;-10.36;85.57;100188.65;101872;1312;94882;-58
2022/12/14 05:49:39;;;;;;;40.10;20.20;;;;;;;-10.48;85.46;100187.23;101893;1313;81202;-58
2022/12/14 05:52:14;;;;;;;40.30;20.30;;;;;;;-10.58;85.38;100190.23;101928;1315;83089;-58
2022/12/14 05:54:47;;;;;;;43.50;21.90;;;;;;;-10.67;85.46;100180.57;101901;1313;98351;-58
2022/12/14 05:57:21;;;;;;;;;;;;;;;-10.75;85.42;100184.02;101920;1313;88759;-58
2022/12/14 05:59:57;;;;;;;42.80;20.80;;;;;;;-10.80;85.39;100189.08;101928;1316;94256;-58
2022/12/14 06:02:31;;;;;;;38.90;19.20;;;;;;;-10.86;85.29;100192.43;101886;1313;79955;-61
2022/12/14 06:05:08;;;;;;;39.90;19.20;;;;;;;-10.96;85.19;100190.75;101909;1317;82343;-58
2022/12/14 06:07:44;;;;;;;36.30;17.60;;;;;;;-11.04;85.14;100195.59;101921;1317;99186;-58
2022/12/14 06:10:21;;;;;;;40.70;20.20;;;;;;;-11.08;85.14;100201.83;101915;1313;87493;-59
2022/12/14 06:12:58;;;;;;;41.50;20.40;;;;;;;-11.07;85.24;100202.84;101944;1317;94891;-60
2022/12/14 06:15:38;;;;;;;42.30;20.60;;;;;;;-11.14;85.13;100203.27;101885;1313;82369;-59
2022/12/14 06:18:13;;;;;;;43.20;19.60;;;;;;;-11.20;85.03;100206.81;101870;1313;81600;-59
2022/12/14 06:20:48;;;;;;;36.50;17.40;;;;;;;-11.27;85.04;100209.52;101894;1313;98395;-59
2022/12/14 06:23:28;;;;;;;42.80;19.20;;;;;;;-11.26;85.22;100209.51;101953;1317;87220;-58
2022/12/14 06:26:05;;;;;;;37.40;19.50;;;;;;;-11.30;85.11;100207.23;101929;1317;94575;-58
2022/12/14 06:28:41;;;;;;;38.80;20.40;;;;;;;-11.29;85.08;100199.21;101924;1313;82371;-58
2022/12/14 06:34:14;;;;;;;42.60;21.10;;;;;;;-11.29;84.92;100197.82;101878;1313;98449;-59
2022/12/14 06:36:48;;;;;;;42.60;21.10;;;;;;;-11.27;85.06;100198.57;101926;1313;87244;-59
2022/12/14 06:39:22;;;;;;;46.80;21.00;;;;;;;-11.19;85.15;100201.59;101917;1317;95009;-59
2022/12/14 06:42:02;;;;;;;42.70;20.50;;;;;;;-11.19;85.17;100201.03;101884;1313;81179;-59
2022/12/14 06:44:37;;;;;;;41.80;21.00;;;;;;;-11.15;85.18;100205.43;101937;1315;82869;-59
2022/12/14 06:47:14;;;;;;;47.30;22.10;;;;;;;-11.16;85.24;100211.38;101887;1317;100074;-58
2022/12/14 06:49:55;;;;;;;41.60;20.30;;;;;;;-11.16;85.23;100211.36;101939;1313;87130;-59
2022/12/14 06:52:29;;;;;;;49.20;21.80;;;;;;;-11.11;85.24;100213.24;101865;1317;94709;-59
2022/12/14 06:55:07;;;;;;;44.70;22.00;;;;;;;-11.12;85.19;100210.50;101944;1313;79092;-59
2022/12/14 06:57:43;;;;;;;42.80;21.20;;;;;;;-11.11;85.26;100213.79;101927;1315;82363;-58
2022/12/14 07:00:22;;;;;;;40.10;19.90;;;;;;;-11.08;85.28;100210.54;101944;1315;99632;-59
2022/12/14 07:02:57;;;;;;;46.30;19.80;;;;;;;-11.12;85.31;100213.11;102018;1317;88042;-60
2022/12/14 07:05:37;;;;;;;44.30;21.50;;;;;;;-11.09;85.25;100215.27;101951;1313;94084;-60
2022/12/14 07:08:12;;;;;;;42.20;20.10;;;;;;;-11.04;85.27;100215.77;101932;1317;82151;-59
2022/12/14 07:10:46;;;;;;;42.30;19.50;;;;;;;-11.02;85.20;100214.30;101945;1314;82498;-59
2022/12/14 07:13:22;;;;;;;43.50;20.50;;;;;;;-11.04;85.16;100216.45;101921;1313;97723;-59
2022/12/14 07:15:58;;;;;;;49.70;22.00;;;;;;;-11.01;85.24;100217.90;101953;1313;87813;-59
2022/12/14 07:18:33;;;;;;;41.00;20.80;;;;;;;-10.94;85.14;100217.13;101915;1315;95129;-58
2022/12/14 07:21:12;;;;;;;45.20;21.00;;;;;;;-10.92;85.11;100221.05;101897;1313;79851;-58
2022/12/14 07:23:51;;;;;;;42.90;20.70;;;;;;;-10.87;85.13;100219.80;101918;1313;80816;-59
2022/12/14 07:26:32;;;;;;;45.80;21.60;;;;;;;-10.90;84.97;100219.92;101859;1313;98850;-58
2022/12/14 07:29:08;;;;;;;46.80;21.20;;;;;;;-10.91;84.97;100223.27;101898;1313;89064;-58
2022/12/14 07:31:49;;;;;;;41.70;21.90;;;;;;;-10.89;84.91;100221.24;101893;1313;95303;-58
2022/12/14 07:34:28;;;;;;;42.70;20.60;;;;;;;-10.83;85.03;100221.87;101870;1313;82846;-59
2022/12/14 07:37:04;;;;;;;42.40;21.60;;;;;;;-10.78;84.82;100226.57;101911;1314;82895;-59
2022/12/14 07:39:38;;;;;;;40.20;19.10;;;;;;;-10.69;84.94;100224.81;101909;1313;99830;-59
2022/12/14 07:42:15;;;;;;;38.20;19.70;;;;;;;-10.54;85.02;100225.41;101959;1314;87413;-58
2022/12/14 07:44:51;;;;;;;41.60;20.20;;;;;;;-10.39;84.95;100223.22;101915;1317;95401;-58
2022/12/14 07:47:31;;;;;;;39.60;20.00;;;;;;;-10.17;84.83;100223.52;101885;1317;80155;-58
2022/12/14 07:50:11;;;;;;;40.00;19.00;;;;;;;-10.02;84.93;100224.21;101909;1313;84139;-60
2022/12/14 07:52:47;;;;;;;43.50;20.20;;;;;;;-9.95;84.99;100219.96;101905;1313;98261;-58
2022/12/14 07:55:21;;;;;;;40.00;21.10;;;;;;;-9.82;84.92;100217.80;101922;1313;87811;-59
2022/12/14 07:57:55;;;;;;;39.30;19.80;;;;;;;-9.69;84.95;100214.95;101870;1315;94330;-60
2022/12/14 08:00:32;;;;;;;41.20;18.90;;;;;;;-9.58;85.00;100213.60;101893;1315;80883;-60
2022/12/14 08:03:11;;;;;;;35.60;19.20;;;;;;;-9.46;84.87;100207.66;101923;1313;82594;-60
2022/12/14 08:05:49;;;;;;;42.20;21.40;;;;;;;-9.39;84.75;100208.36;101912;1315;99394;-59
2022/12/14 08:08:24;;;;;;;44.00;23.00;;;;;;;-9.28;84.82;100213.45;101901;1313;89376;-60
2022/12/14 08:10:59;;;;;;;44.90;22.80;;;;;;;-9.25;84.96;100212.44;101848;1317;96654;-59
2022/12/14 08:13:38;;;;;;;48.90;24.80;;;;;;;-9.15;84.90;100213.02;101889;1313;82561;-60
2022/12/14 08:16:15;;;;;;;50.70;24.90;;;;;;;-8.98;84.76;100219.04;101885;1313;80687;-59
2022/12/14 08:18:52;;;;;;;51.10;23.40;;;;;;;-8.89;84.73;100215.48;101922;1315;99375;-60
2022/12/14 08:21:28;;;;;;;42.00;22.00;;;;;;;-8.79;84.56;100213.59;101924;1317;88509;-61
2022/12/14 08:24:03;;;;;;;45.80;23.20;;;;;;;-8.70;84.83;100211.58;101909;1313;94168;-60
2022/12/14 08:26:38;;;;;;;55.90;26.00;;;;;;;-8.63;84.86;100213.33;101904;1315;82650;-61
2022/12/14 08:29:14;;;;;;;49.10;24.80;;;;;;;-8.49;84.90;100206.85;101930;1313;83096;-60
2022/12/14 08:31:54;;;;;;;48.80;25.50;;;;;;;-8.32;84.74;100205.89;101924;1313;99361;-60
2022/12/14 08:34:32;;;;;;;47.50;26.10;;;;;;;-8.07;84.84;100207.70;101890;1317;86412;-59
2022/12/14 08:37:07;;;;;;;48.30;24.40;;;;;;;-7.88;84.41;100207.08;101894;1313;93625;-60
2022/12/14 08:39:41;;;;;;;43.30;23.30;;;;;;;-7.84;84.53;100210.34;101940;1314;81937;-59
2022/12/14 08:42:15;;;;;;;47.00;24.40;;;;;;;-7.71;84.60;100211.43;101914;1313;80977;-58
2022/12/14 08:44:50;;;;;;;;;;;;;;;-7.64;84.75;100211.75;101893;1313;98528;-59
2022/12/14 08:47:26;;;;;;;45.40;23.60;;;;;;;-7.55;84.71;100215.52;101870;1313;88874;-59
2022/12/14 08:50:00;;;;;;;48.20;24.70;;;;;;;-7.50;84.63;100208.05;101868;1317;93854;-58
2022/12/14 08:52:35;;;;;;;50.60;28.00;;;;;;;-7.37;84.73;100204.35;101940;1313;79437;-58
2022/12/14 08:55:10;;;;;;;52.60;29.90;;;;;;;-7.00;85.13;100199.02;101943;1311;82725;-59
2022/12/14 08:57:46;;;;;;;55.20;28.80;;;;;;;-6.25;85.20;100195.13;101960;1313;97569;-58
2022/12/14 09:00:21;;;;;;;61.80;33.90;;;;;;;-5.63;84.83;100195.55;101945;1313;88542;-59
2022/12/14 09:02:55;;;;;;;53.50;31.20;;;;;;;-5.28;84.55;100192.22;101945;1313;94537;-59
2022/12/14 09:05:28;;;;;;;;;;;;;;;-5.11;84.20;100196.90;101889;1312;81544;-59
2022/12/14 09:08:03;;;;;;;60.10;33.50;;;;;;;-5.01;83.84;100192.38;101914;1317;83371;-59
2022/12/14 09:10:38;;;;;;;52.50;32.00;;;;;;;-4.97;83.58;100191.80;101925;1317;99542;-59
2022/12/14 09:13:13;;;;;;;107.70;59.50;;;;;;;-4.91;83.48;100193.67;101956;1313;88988;-57
2022/12/14 09:15:55;;;;;;;76.30;40.50;;;;;;;-4.79;83.34;100187.09;101864;1313;94972;-58
2022/12/14 09:18:33;;;;;;;59.70;32.90;;;;;;;-4.50;83.38;100186.61;101892;1313;79493;-58
2022/12/14 09:21:09;;;;;;;52.80;30.50;;;;;;;-4.08;83.43;100179.39;101891;1317;82928;-57
2022/12/14 09:23:45;;;;;;;114.30;61.10;;;;;;;-3.59;83.35;100173.98;101737;1315;249642;-59
2022/12/14 09:26:24;;;;;;;55.60;32.90;;;;;;;-3.04;83.16;100172.15;101886;1317;89765;-58
2022/12/14 09:28:59;;;;;;;42.80;26.80;;;;;;;-2.41;82.84;100169.11;101930;1313;94544;-59
2022/12/14 09:31:33;;;;;;;39.30;24.60;;;;;;;-1.77;82.21;100161.95;101936;1313;78138;-59
2022/12/14 09:34:08;;;;;;;39.70;24.40;;;;;;;-1.38;81.66;100159.78;101932;1315;82848;-59
2022/12/14 09:36:47;;;;;;;39.60;25.60;;;;;;;-0.94;81.16;100158.38;101954;1313;99524;-59
2022/12/14 09:39:23;;;;;;;37.00;23.90;;;;;;;-0.63;80.96;100153.25;101987;1313;88618;-58
2022/12/14 09:42:12;;;;;;;36.00;24.10;;;;;;;-0.42;80.36;100146.88;101928;1314;95883;-60
2022/12/14 09:45:00;;;;;;;38.40;23.70;;;;;;;-0.10;79.93;100139.75;101928;1313;79243;-58
2022/12/14 09:47:42;;;;;;;34.60;24.40;;;;;;;0.23;79.35;100139.46;101921;1313;83256;-58
2022/12/14 09:50:21;;;;;;;34.30;24.20;;;;;;;0.51;78.57;100140.88;101865;1313;98117;-59
2022/12/14 09:52:57;;;;;;;35.40;25.10;;;;;;;0.75;78.45;100140.44;101927;1313;87293;-59
2022/12/14 09:55:36;;;;;;;37.20;25.50;;;;;;;0.81;78.11;100138.13;101952;1315;94903;-58
2022/12/14 09:58:19;;;;;;;36.00;24.50;;;;;;;0.79;77.51;100130.86;101859;1313;78064;-58
2022/12/14 10:01:00;;;;;;;39.10;26.80;;;;;;;1.37;76.88;100124.20;101892;1314;81676;-57
2022/12/14 10:04:01;;;;;;;37.10;24.50;;;;;;;1.64;77.11;100116.96;101937;1317;98211;-60
2022/12/14 10:06:45;;;;;;;34.30;26.30;;;;;;;1.78;76.47;100114.52;101915;1314;88947;-62
2022/12/14 10:09:29;;;;;;;38.70;26.70;;;;;;;1.78;76.07;100116.69;101900;1317;94511;-59
2022/12/14 10:12:21;;;;;;;34.50;25.50;;;;;;;2.02;75.82;100111.67;101910;1315;79547;-58
2022/12/14 10:15:19;;;;;;;34.90;25.20;;;;;;;2.30;75.48;100107.96;101933;1317;82193;-57
2022/12/14 10:18:20;;;;;;;36.80;24.80;;;;;;;2.50;74.09;100108.73;101943;1313;99553;-58
2022/12/14 10:21:02;;;;;;;35.50;24.70;;;;;;;1.95;73.94;100103.24;101905;1313;88809;-59
2022/12/14 10:23:42;;;;;;;;;;;;;;;1.27;73.25;100103.48;101931;1313;93873;-59
2022/12/14 10:26:19;;;;;;;38.00;25.50;;;;;;;0.64;73.71;100101.13;101905;1316;78273;-50
2022/12/14 10:29:01;;;;;;;32.80;21.70;;;;;;;0.17;73.64;100099.80;101954;1317;81959;-61
2022/12/14 10:31:47;;;;;;;37.40;24.40;;;;;;;-0.22;73.56;100097.66;101866;1316;98971;-61
2022/12/14 10:34:28;;;;;;;39.00;25.40;;;;;;;-0.79;73.96;100097.20;101899;1313;89044;-60
2022/12/14 10:37:20;;;;;;;38.80;25.70;;;;;;;-1.03;74.15;100094.25;101893;1313;93870;-61
2022/12/14 10:40:13;;;;;;;33.80;24.10;;;;;;;-1.39;74.55;100084.24;101863;1313;80205;-58
2022/12/14 10:43:08;;;;;;;36.70;23.70;;;;;;;-1.55;74.70;100076.91;101905;1313;82027;-60
2022/12/14 10:45:51;;;;;;;39.90;23.90;;;;;;;-1.76;75.11;100074.30;101937;1314;98504;-58
2022/12/14 10:48:45;;;;;;;41.50;24.10;;;;;;;-1.92;75.06;100067.49;101918;1313;88552;-58
2022/12/14 10:51:28;;;;;;;38.20;23.90;;;;;;;-2.08;75.13;100065.17;101923;1317;94397;-59
2022/12/14 10:54:20;;;;;;;45.80;28.50;;;;;;;-2.25;75.55;100059.09;101930;1313;78604;-60
2022/12/14 10:56:55;;;;;;;42.90;26.10;;;;;;;-2.39;75.18;100054.20;101960;1315;83743;-60
2022/12/14 10:59:35;;;;;;;42.50;25.50;;;;;;;-2.42;75.33;100051.58;101942;1315;97378;-59
2022/12/14 11:02:15;;;;;;;40.60;24.30;;;;;;;-2.55;75.13;100045.35;101957;1313;89442;-59
2022/12/14 11:04:54;;;;;;;45.10;26.40;;;;;;;-2.75;75.06;100043.71;101903;1317;93724;-61
2022/12/14 11:07:41;;;;;;;45.20;27.70;;;;;;;-2.82;75.75;100035.94;101889;1315;81006;-65
2022/12/14 11:10:24;;;;;;;41.00;23.30;;;;;;;-3.03;75.99;100029.39;101932;1313;83290;-60
2022/12/14 11:13:07;;;;;;;42.70;24.90;;;;;;;-3.13;76.27;100025.55;101932;1314;98687;-59
2022/12/14 11:15:47;;;;;;;39.60;23.10;;;;;;;-3.21;76.50;100024.94;101909;1317;88330;-59
2022/12/14 11:18:34;;;;;;;40.60;22.40;;;;;;;-3.28;76.71;100021.62;101928;1313;95503;-60
2022/12/14 11:21:16;;;;;;;43.20;25.70;;;;;;;-3.33;76.75;100018.45;101886;1315;80071;-60
2022/12/14 11:23:56;;;;;;;88.80;36.90;;;;;;;-3.29;76.80;100016.00;101884;1313;84538;-58
2022/12/14 11:26:38;;;;;;;44.60;25.00;;;;;;;-3.25;76.70;100015.58;101922;1317;100012;-58
2022/12/14 11:29:24;;;;;;;43.90;24.80;;;;;;;-3.32;76.87;100012.57;101945;1317;88254;-58
2022/12/14 11:31:59;;;;;;;62.50;31.50;;;;;;;-3.39;76.94;100006.17;101896;1313;95668;-58
2022/12/14 11:34:38;;;;;;;66.50;35.00;;;;;;;-3.50;76.98;99999.81;101941;1315;79739;-60
2022/12/14 11:37:25;;;;;;;66.30;34.40;;;;;;;-3.53;77.07;99997.51;101942;1315;81793;-58
2022/12/14 11:40:03;;;;;;;52.10;28.20;;;;;;;-3.49;76.93;99992.66;101948;1314;97440;-58
2022/12/14 11:42:38;;;;;;;48.40;28.80;;;;;;;-3.50;76.97;99992.40;101936;1316;91628;-59
2022/12/14 11:45:52;;;;;;;48.40;27.60;;;;;;;-3.56;77.22;99988.39;101911;1314;92896;-63
2022/12/14 11:48:35;;;;;;;50.50;29.20;;;;;;;-3.61;77.46;99982.42;101918;1315;79273;-61
2022/12/14 11:51:15;;;;;;;54.80;29.80;;;;;;;-3.67;77.62;99978.11;101907;1315;82006;-60
2022/12/14 11:54:03;;;;;;;44.00;26.30;;;;;;;-3.70;77.63;99979.23;101884;1313;98220;-59
2022/12/14 11:56:40;;;;;;;43.20;25.70;;;;;;;-3.81;77.23;99973.33;101879;1313;88366;-59
2022/12/14 11:59:19;;;;;;;45.20;25.90;;;;;;;-3.83;77.55;99972.43;101879;1313;94675;-59
2022/12/14 12:01:55;;;;;;;47.80;27.20;;;;;;;-3.86;77.62;99972.69;101871;1314;82515;-58
2022/12/14 12:04:30;;;;;;;50.70;27.60;;;;;;;-3.90;77.53;99966.30;101937;1313;80858;-59
2022/12/14 12:07:14;;;;;;;52.30;27.30;;;;;;;-3.96;77.78;99964.56;101861;1313;99508;-60
2022/12/14 12:09:51;;;;;;;48.20;27.20;;;;;;;-3.95;77.61;99958.17;101924;1313;89602;-59
2022/12/14 12:12:26;;;;;;;47.20;26.10;;;;;;;-3.92;77.81;99959.23;101938;1313;95076;-59
2022/12/14 12:14:59;;;;;;;;;;;;;;;-3.92;78.08;99957.11;101983;1313;80968;-58